Time;durP1;ratioP1;P1;durP2;ratioP2;P2;SDS_P1;SDS_P2;PMS_P1;PMS_P2;Temp;Humidity;BMP_temperature;BMP_pressure;BME280_temperature;BME280_humidity;BME280_pressure;Samples;Min_cycle;Max_cycle;Signal;HPM_P1;HPM_P2
2021/08/06 00:00:48;;;;;;;13.18;3.20;;;;;;;33.93;18.16;100076.97;144992;628;6002;-84
2021/08/06 00:03:15;;;;;;;16.65;3.83;;;;;;;33.88;21.62;100077.34;144991;580;6002;-81
2021/08/06 00:05:42;;;;;;;10.07;3.03;;;;;;;33.91;21.32;100077.09;144992;576;6002;-83
2021/08/06 00:08:09;;;;;;;12.93;3.50;;;;;;;33.93;22.09;100072.47;144992;569;6002;-82
2021/08/06 00:10:35;;;;;;;15.68;3.28;;;;;;;33.96;21.90;100065.97;144992;629;6002;-81
2021/08/06 00:13:02;;;;;;;12.85;3.67;;;;;;;33.95;21.48;100065.13;144992;604;6002;-80
2021/08/06 00:15:29;;;;;;;14.80;3.28;;;;;;;33.92;19.79;100070.75;144992;578;6002;-83
2021/08/06 00:17:56;;;;;;;13.50;3.20;;;;;;;33.95;21.49;100072.34;144992;572;6002;-82
2021/08/06 00:20:23;;;;;;;11.48;3.08;;;;;;;34.01;22.07;100073.69;144992;574;6002;-84
2021/08/06 00:22:49;;;;;;;11.02;2.75;;;;;;;34.06;22.01;100069.66;144992;593;6002;-83
2021/08/06 00:25:16;;;;;;;12.32;3.17;;;;;;;34.10;21.95;100062.19;144992;689;6002;-83
2021/08/06 00:27:42;;;;;;;12.02;2.97;;;;;;;34.13;21.79;100065.50;144992;636;6002;-82
2021/08/06 00:30:09;;;;;;;11.77;3.20;;;;;;;34.16;21.74;100067.09;144992;593;6002;-82
2021/08/06 00:32:36;;;;;;;8.90;2.75;;;;;;;34.18;21.58;100065.13;144992;631;6002;-82
2021/08/06 00:35:03;;;;;;;11.95;3.47;;;;;;;34.21;21.39;100069.44;144992;632;6002;-82
2021/08/06 00:37:30;;;;;;;16.37;3.37;;;;;;;34.21;21.74;100064.88;144992;628;6002;-83
2021/08/06 00:39:56;;;;;;;14.57;3.22;;;;;;;34.20;20.75;100071.25;144992;569;6002;-83
2021/08/06 00:42:23;;;;;;;14.25;3.08;;;;;;;34.20;21.18;100067.69;144992;572;6002;-82
2021/08/06 00:44:49;;;;;;;13.82;3.40;;;;;;;34.13;21.03;100070.03;144992;588;6002;-82
2021/08/06 00:47:17;;;;;;;11.80;3.47;;;;;;;34.11;21.89;100070.16;144992;571;6002;-81
2021/08/06 00:49:45;;;;;;;14.00;4.90;;;;;;;34.08;21.28;100069.56;144992;570;6002;-85
2021/08/06 00:52:15;;;;;;;14.48;4.25;;;;;;;34.05;20.66;100062.56;144992;721;6002;-82
2021/08/06 00:54:42;;;;;;;14.23;4.65;;;;;;;34.09;21.26;100063.16;144992;733;6002;-82
2021/08/06 00:57:13;;;;;;;13.85;4.00;;;;;;;34.12;21.37;100065.62;144992;565;6002;-82
2021/08/06 00:59:40;;;;;;;12.93;3.83;;;;;;;34.10;21.04;100064.88;144992;699;6002;-82
2021/08/06 01:02:20;;;;;;;16.87;3.83;;;;;;;34.10;21.58;100075.66;144992;657;6002;-82
2021/08/06 01:05:14;;;;;;;13.38;3.62;;;;;;;34.10;21.78;100071.13;144992;703;6002;-82
2021/08/06 01:08:03;;;;;;;;;;;;;;;34.10;21.86;100064.88;144997;907;6004;-83
2021/08/06 01:10:45;;;;;;;14.48;3.90;;;;;;;34.09;21.35;100063.16;144997;578;6000;-82
2021/08/06 01:13:16;;;;;;;16.73;3.62;;;;;;;34.04;21.19;100071.59;144992;575;6002;-82
2021/08/06 01:15:48;;;;;;;15.73;3.78;;;;;;;34.03;21.43;100071.72;144992;629;6002;-82
2021/08/06 01:18:16;;;;;;;11.73;3.37;;;;;;;34.03;21.30;100072.59;144992;691;6002;-81
2021/08/06 01:20:55;;;;;;;13.32;3.20;;;;;;;34.05;20.19;100064.41;144992;581;6002;-82
2021/08/06 01:23:35;;;;;;;13.55;3.35;;;;;;;34.05;21.11;100072.50;144992;589;6002;-83
2021/08/06 01:26:09;;;;;;;13.95;3.25;;;;;;;34.07;21.23;100059.75;144992;565;6002;-81
2021/08/06 01:28:39;;;;;;;14.00;3.78;;;;;;;34.14;21.31;100074.44;144992;713;6002;-82
2021/08/06 01:31:06;;;;;;;13.65;3.60;;;;;;;34.20;20.95;100068.53;144992;581;6002;-82
2021/08/06 01:33:34;;;;;;;15.23;3.95;;;;;;;34.19;20.97;100074.94;144992;564;6002;-83
2021/08/06 01:36:01;;;;;;;17.20;3.65;;;;;;;34.22;19.98;100068.44;144992;581;6002;-84
2021/08/06 01:38:28;;;;;;;14.25;3.78;;;;;;;34.21;21.12;100064.88;144992;603;6002;-83
2021/08/06 01:41:27;;;;;;;12.65;3.12;;;;;;;34.24;21.31;100066.53;144992;696;6002;-86
2021/08/06 01:44:34;;;;;;;15.68;3.80;;;;;;;34.28;21.13;100067.97;144992;583;6004;-82
2021/08/06 01:47:25;;;;;;;11.88;3.20;;;;;;;34.23;19.44;100065.66;144992;620;6002;-82
2021/08/06 01:50:07;;;;;;;11.63;2.92;;;;;;;34.16;19.72;100065.25;144992;599;6002;-83
2021/08/06 01:52:59;;;;;;;11.77;3.28;;;;;;;34.15;19.69;100060.00;144991;573;6002;-82
2021/08/06 01:55:52;;;;;;;14.30;3.55;;;;;;;34.11;21.53;100061.22;144992;594;6002;-85
2021/08/06 01:58:27;;;;;;;14.48;3.60;;;;;;;34.16;21.28;100053.63;144992;587;6004;-83
2021/08/06 02:01:00;;;;;;;13.30;3.20;;;;;;;34.22;21.36;100053.16;144992;635;6004;-82
2021/08/06 02:03:35;;;;;;;11.80;3.15;;;;;;;34.30;21.16;100057.97;144992;596;6004;-83
2021/08/06 02:06:17;;;;;;;;;;;;;;;34.37;21.37;100056.47;144997;910;6004;-85
2021/08/06 02:09:02;;;;;;;15.90;3.62;;;;;;;34.45;21.67;100058.53;144997;590;6002;-82
2021/08/06 02:11:51;;;;;;;12.73;3.33;;;;;;;34.47;20.92;100051.19;144992;589;6002;-83
2021/08/06 02:14:29;;;;;;;17.37;3.53;;;;;;;34.46;21.25;100057.56;144992;608;6002;-80
2021/08/06 02:17:12;;;;;;;17.05;3.45;;;;;;;34.53;21.29;100054.22;144992;602;6002;-84
2021/08/06 02:19:44;;;;;;;16.37;3.20;;;;;;;34.49;21.35;100042.00;144991;672;6002;-83
2021/08/06 02:22:14;;;;;;;17.48;3.62;;;;;;;34.49;20.45;100049.22;144992;614;6002;-81
2021/08/06 02:24:51;;;;;;;12.93;3.40;;;;;;;34.47;21.25;100049.38;144992;641;6002;-81
2021/08/06 02:27:27;;;;;;;11.23;3.15;;;;;;;34.47;20.75;100043.97;144992;590;6002;-83
2021/08/06 02:29:59;;;;;;;12.37;3.42;;;;;;;34.46;20.78;100034.16;144992;593;6002;-83
2021/08/06 02:32:26;;;;;;;10.25;3.33;;;;;;;34.47;20.14;100040.41;144992;589;6003;-81
2021/08/06 02:34:54;;;;;;;13.90;3.55;;;;;;;34.41;21.40;100038.22;144992;622;6002;-82
2021/08/06 02:37:21;;;;;;;18.10;4.07;;;;;;;34.36;21.40;100033.19;144992;597;6002;-82
2021/08/06 02:40:13;;;;;;;11.82;3.70;;;;;;;34.33;21.04;100037.00;144992;600;6002;-87
2021/08/06 02:42:53;;;;;;;15.98;3.40;;;;;;;34.41;21.29;100040.91;144992;568;6004;-82
2021/08/06 02:45:37;;;;;;;14.02;3.37;;;;;;;34.47;21.20;100040.41;144992;631;6004;-83
2021/08/06 02:48:06;;;;;;;15.48;3.28;;;;;;;34.46;21.03;100034.16;144992;620;6004;-82
2021/08/06 02:50:39;;;;;;;13.80;3.22;;;;;;;34.47;21.49;100041.28;144992;599;6004;-82
2021/08/06 02:53:08;;;;;;;20.20;4.47;;;;;;;34.42;21.34;100035.38;144992;573;6004;-83
2021/08/06 02:55:36;;;;;;;14.55;3.33;;;;;;;34.43;21.03;100041.66;144992;562;6006;-82
2021/08/06 02:58:03;;;;;;;15.20;3.45;;;;;;;34.34;21.29;100030.63;144992;627;6004;-82
2021/08/06 03:00:31;;;;;;;13.20;3.60;;;;;;;34.20;20.96;100038.94;144992;684;6004;-83
2021/08/06 03:02:57;;;;;;;16.25;3.42;;;;;;;33.94;21.42;100031.09;144992;583;6004;-83
2021/08/06 03:05:24;;;;;;;12.27;3.45;;;;;;;33.95;21.72;100035.50;144992;701;6004;-82
2021/08/06 03:07:53;;;;;;;15.93;3.78;;;;;;;33.93;21.78;100029.41;144992;578;6004;-81
2021/08/06 03:10:21;;;;;;;17.25;3.65;;;;;;;33.80;20.94;100037.56;144992;581;6004;-82
2021/08/06 03:12:48;;;;;;;22.77;4.05;;;;;;;33.61;21.09;100031.88;144992;583;6004;-81
2021/08/06 03:15:15;;;;;;;13.80;3.33;;;;;;;33.40;21.24;100043.34;144992;575;6004;-82
2021/08/06 03:17:44;;;;;;;20.42;4.07;;;;;;;33.34;21.90;100048.31;144992;601;6004;-82
2021/08/06 03:20:13;;;;;;;17.85;3.85;;;;;;;33.23;22.27;100047.34;144992;604;6004;-82
2021/08/06 03:22:41;;;;;;;17.33;3.97;;;;;;;33.14;22.50;100044.41;144992;575;6004;-81
2021/08/06 03:25:09;;;;;;;12.85;4.00;;;;;;;33.02;22.40;100046.22;144992;653;6004;-82
2021/08/06 03:27:36;;;;;;;15.70;3.95;;;;;;;32.98;22.65;100045.59;144992;567;6004;-82
2021/08/06 03:30:06;;;;;;;17.60;3.55;;;;;;;32.94;22.46;100056.69;144992;583;6004;-82
2021/08/06 03:32:33;;;;;;;16.12;3.22;;;;;;;32.92;22.88;100055.97;144992;629;6004;-81
2021/08/06 03:34:59;;;;;;;16.02;3.90;;;;;;;32.96;22.61;100055.59;144992;582;6004;-82
2021/08/06 03:37:26;;;;;;;16.20;4.00;;;;;;;33.00;22.82;100058.94;144992;641;6013;-83
2021/08/06 03:40:02;;;;;;;20.27;3.87;;;;;;;33.02;23.06;100054.28;144992;614;6004;-83
2021/08/06 03:42:31;;;;;;;18.87;4.78;;;;;;;32.98;23.52;100063.53;144992;576;6004;-83
2021/08/06 03:44:58;;;;;;;19.08;4.57;;;;;;;32.99;23.74;100049.97;144992;625;6004;-83
2021/08/06 03:47:24;;;;;;;26.02;4.87;;;;;;;32.90;24.23;100062.28;144992;566;6004;-83
2021/08/06 03:49:50;;;;;;;15.95;4.35;;;;;;;32.90;24.11;100061.44;144992;590;6004;-82
2021/08/06 03:52:17;;;;;;;15.85;3.83;;;;;;;32.85;24.48;100067.16;144992;561;6004;-81
2021/08/06 03:54:43;;;;;;;14.93;3.80;;;;;;;32.86;25.13;100065.31;144991;638;6000;-82
2021/08/06 03:57:10;;;;;;;17.02;4.03;;;;;;;32.77;24.89;100064.19;144992;569;6002;-81
2021/08/06 03:59:36;;;;;;;22.73;4.60;;;;;;;32.73;24.91;100068.91;144992;604;6002;-80
2021/08/06 04:02:11;;;;;;;16.95;4.68;;;;;;;32.65;25.81;100075.84;144992;583;6002;-83
2021/08/06 04:04:41;;;;;;;17.25;4.28;;;;;;;32.64;26.11;100083.00;144992;564;6002;-81
2021/08/06 04:07:07;;;;;;;13.70;4.20;;;;;;;32.70;26.07;100085.25;144992;569;6002;-82
2021/08/06 04:09:34;;;;;;;16.75;4.07;;;;;;;32.83;24.96;100079.84;144992;582;6002;-83
2021/08/06 04:12:00;;;;;;;17.80;4.50;;;;;;;32.96;25.38;100081.63;144992;603;6002;-84
2021/08/06 04:14:27;;;;;;;21.58;4.43;;;;;;;32.90;26.17;100086.50;144992;583;6002;-83
2021/08/06 04:16:56;;;;;;;15.32;4.18;;;;;;;32.89;24.67;100082.06;144992;572;6002;-82
2021/08/06 04:19:22;;;;;;;14.98;3.70;;;;;;;32.93;24.88;100082.72;144992;604;6002;-83
2021/08/06 04:21:49;;;;;;;19.48;4.15;;;;;;;32.97;25.45;100072.59;144992;569;6002;-82
2021/08/06 04:24:15;;;;;;;16.75;3.83;;;;;;;32.98;25.93;100074.28;144992;586;6002;-82
2021/08/06 04:26:42;;;;;;;11.55;4.05;;;;;;;33.00;25.27;100088.50;144993;639;6002;-82
2021/08/06 04:29:08;;;;;;;16.35;3.90;;;;;;;33.02;25.93;100086.53;144992;594;6002;-83
2021/08/06 04:31:34;;;;;;;14.05;3.72;;;;;;;33.00;25.86;100096.56;144993;574;6002;-83
2021/08/06 04:34:01;;;;;;;17.83;5.10;;;;;;;32.92;25.04;100091.75;144993;604;6002;-83
2021/08/06 04:36:28;;;;;;;13.75;4.10;;;;;;;32.99;25.14;100092.16;144993;583;6002;-82
2021/08/06 04:38:55;;;;;;;14.52;3.97;;;;;;;32.96;26.51;100103.12;144993;586;6003;-83
2021/08/06 04:41:22;;;;;;;15.77;4.10;;;;;;;33.03;26.38;100107.94;144993;571;6002;-81
2021/08/06 04:43:49;;;;;;;14.98;3.85;;;;;;;32.98;26.14;100101.16;144993;563;6002;-81
2021/08/06 04:46:15;;;;;;;18.50;4.45;;;;;;;33.00;25.11;100096.56;144993;570;6002;-82
2021/08/06 04:48:42;;;;;;;13.57;3.85;;;;;;;33.06;25.21;100105.03;144992;601;6002;-81
2021/08/06 04:51:12;;;;;;;14.02;4.20;;;;;;;33.08;26.49;100107.59;144993;597;6002;-83
2021/08/06 04:53:38;;;;;;;15.48;4.32;;;;;;;33.14;26.07;100109.84;144993;570;6002;-82
2021/08/06 04:56:05;;;;;;;14.68;4.30;;;;;;;33.15;26.27;100110.69;144993;616;6002;-82
2021/08/06 04:58:31;;;;;;;17.62;3.75;;;;;;;33.23;26.04;100119.06;144992;592;6002;-81
2021/08/06 05:00:58;;;;;;;15.57;4.37;;;;;;;33.20;27.05;100122.84;144992;589;6002;-82
2021/08/06 05:03:24;;;;;;;12.77;4.30;;;;;;;33.21;25.64;100119.16;144992;565;6002;-82
2021/08/06 05:05:51;;;;;;;22.90;5.15;;;;;;;33.24;25.82;100129.69;144992;605;6002;-82
2021/08/06 05:08:17;;;;;;;10.75;4.65;;;;;;;33.32;26.09;100122.91;144992;608;6002;-83
2021/08/06 05:10:44;;;;;;;13.38;4.43;;;;;;;33.40;25.55;100117.81;144993;569;6002;-82
2021/08/06 05:13:10;;;;;;;12.90;4.35;;;;;;;33.48;26.22;100115.37;144993;579;6002;-84
2021/08/06 05:15:37;;;;;;;14.87;4.20;;;;;;;33.56;26.13;100118.34;144993;584;6002;-83
2021/08/06 05:18:03;;;;;;;15.10;4.43;;;;;;;33.55;27.30;100127.41;144993;628;6002;-82
2021/08/06 05:20:30;;;;;;;10.70;4.10;;;;;;;33.50;26.81;100117.94;144993;585;6002;-82
2021/08/06 05:22:56;;;;;;;16.92;4.25;;;;;;;33.30;28.80;100124.81;144993;601;6002;-83
2021/08/06 05:25:23;;;;;;;18.73;4.60;;;;;;;33.18;27.32;100124.78;144993;580;6002;-81
2021/08/06 05:27:49;;;;;;;17.85;4.82;;;;;;;33.17;29.44;100125.78;144993;591;6002;-82
2021/08/06 05:30:20;;;;;;;17.12;5.35;;;;;;;33.10;28.37;100127.16;144992;585;6002;-81
2021/08/06 05:32:48;;;;;;;15.57;4.93;;;;;;;32.99;29.83;100136.00;144993;595;6002;-83
2021/08/06 05:35:16;;;;;;;16.50;5.05;;;;;;;32.93;29.12;100131.09;144993;569;6002;-83
2021/08/06 05:37:45;;;;;;;19.33;5.20;;;;;;;33.04;27.92;100127.59;144992;583;6002;-82
2021/08/06 05:40:13;;;;;;;11.65;4.72;;;;;;;33.21;28.10;100135.31;144993;590;6002;-81
2021/08/06 05:42:41;;;;;;;20.70;4.85;;;;;;;33.25;28.76;100131.44;144993;714;6002;-82
2021/08/06 05:45:09;;;;;;;15.43;4.90;;;;;;;33.32;29.33;100141.72;144993;662;6002;-83
2021/08/06 05:47:47;;;;;;;16.80;4.93;;;;;;;33.29;29.47;100144.66;144993;719;6002;-81
2021/08/06 05:50:14;;;;;;;18.23;4.72;;;;;;;33.24;29.47;100136.91;144993;589;6002;-82
2021/08/06 05:52:42;;;;;;;14.80;4.82;;;;;;;33.16;29.46;100137.47;144993;592;6002;-82
2021/08/06 05:55:10;;;;;;;16.83;4.95;;;;;;;33.17;29.44;100139.22;144993;593;6002;-83
2021/08/06 05:57:38;;;;;;;30.62;5.60;;;;;;;33.19;28.75;100131.87;144993;640;6002;-82
2021/08/06 06:00:08;;;;;;;21.15;6.65;;;;;;;33.22;29.63;100136.19;144993;603;6002;-83
2021/08/06 06:02:36;;;;;;;19.80;5.75;;;;;;;33.33;29.48;100127.28;144993;589;6002;-81
2021/08/06 06:05:04;;;;;;;17.52;5.20;;;;;;;33.38;28.28;100134.06;144994;563;5002;-82
2021/08/06 06:07:30;;;;;;;16.73;4.70;;;;;;;33.47;27.98;100124.41;144994;575;5002;-81
2021/08/06 06:09:58;;;;;;;19.12;4.68;;;;;;;33.50;28.04;100134.94;144994;603;5002;-83
2021/08/06 06:12:25;;;;;;;17.80;4.80;;;;;;;33.55;28.20;100135.47;144994;704;5002;-81
2021/08/06 06:14:53;;;;;;;20.15;4.90;;;;;;;33.58;28.61;100142.44;144994;580;5002;-82
2021/08/06 06:17:20;;;;;;;14.00;4.50;;;;;;;33.53;28.58;100148.16;144993;608;5002;-83
2021/08/06 06:19:47;;;;;;;13.85;5.05;;;;;;;33.59;28.36;100146.84;144994;582;5002;-82
2021/08/06 06:22:14;;;;;;;14.27;5.22;;;;;;;33.65;28.14;100149.09;144994;590;5002;-83
2021/08/06 06:24:41;;;;;;;19.17;4.95;;;;;;;33.78;27.99;100149.03;144994;567;5002;-82
2021/08/06 06:27:09;;;;;;;21.50;4.78;;;;;;;33.83;28.88;100157.59;144994;585;5002;-82
2021/08/06 06:29:36;;;;;;;15.40;5.32;;;;;;;33.90;28.94;100156.16;144994;573;5002;-82
2021/08/06 06:32:04;;;;;;;14.25;4.62;;;;;;;33.92;28.66;100150.66;144994;591;5002;-82
2021/08/06 06:34:32;;;;;;;16.20;5.40;;;;;;;33.93;28.36;100153.25;144994;584;5002;-83
2021/08/06 06:36:59;;;;;;;27.87;5.65;;;;;;;33.90;28.50;100153.47;144994;603;5002;-82
2021/08/06 06:39:27;;;;;;;20.75;5.60;;;;;;;33.67;27.91;100149.81;144994;583;5002;-82
2021/08/06 06:41:58;;;;;;;16.90;5.47;;;;;;;33.64;28.03;100144.66;144994;656;5002;-83
2021/08/06 06:44:24;;;;;;;19.77;6.47;;;;;;;33.60;28.20;100135.13;144994;645;5002;-82
2021/08/06 06:46:53;;;;;;;15.23;5.55;;;;;;;33.60;28.31;100140.50;144994;571;5002;-82
2021/08/06 06:49:20;;;;;;;16.52;5.70;;;;;;;33.55;27.83;100135.47;144994;573;5002;-80
2021/08/06 06:51:47;;;;;;;16.75;6.22;;;;;;;33.52;28.13;100129.44;144994;582;5002;-83
2021/08/06 06:54:15;;;;;;;21.20;5.12;;;;;;;33.57;28.42;100129.97;144994;616;5002;-83
2021/08/06 06:56:42;;;;;;;14.25;5.40;;;;;;;33.54;28.16;100130.22;144994;570;5002;-83
2021/08/06 06:59:11;;;;;;;18.27;6.68;;;;;;;33.60;28.47;100122.53;144994;569;5002;-82
2021/08/06 07:01:39;;;;;;;14.80;4.90;;;;;;;33.68;27.99;100121.94;144994;586;5002;-83
2021/08/06 07:04:06;;;;;;;16.58;4.62;;;;;;;33.70;27.92;100121.81;144994;684;5002;-81
2021/08/06 07:06:33;;;;;;;16.70;5.03;;;;;;;33.85;27.65;100109.88;144994;572;5002;-85
2021/08/06 07:09:00;;;;;;;13.25;4.50;;;;;;;33.90;27.57;100110.41;144994;666;5002;-83
2021/08/06 07:11:28;;;;;;;10.60;4.28;;;;;;;34.05;27.58;100105.63;144994;578;5002;-82
2021/08/06 07:13:58;;;;;;;12.98;4.90;;;;;;;34.10;27.69;100100.75;144994;582;5002;-82
2021/08/06 07:16:25;;;;;;;18.25;4.65;;;;;;;34.10;27.14;100091.81;144994;655;5002;-82
2021/08/06 07:18:52;;;;;;;16.95;4.75;;;;;;;34.23;27.82;100089.03;144994;607;5002;-88
2021/08/06 07:21:19;;;;;;;14.45;4.37;;;;;;;34.43;27.31;100093.69;144994;596;5002;-80
2021/08/06 07:23:46;;;;;;;18.42;5.50;;;;;;;34.55;27.72;100094.53;144994;593;5002;-82
2021/08/06 07:26:13;;;;;;;16.00;5.03;;;;;;;34.45;27.29;100098.94;144994;599;5002;-80
2021/08/06 07:28:42;;;;;;;12.52;4.65;;;;;;;34.27;26.46;100096.75;144994;603;5002;-82
2021/08/06 07:31:09;;;;;;;12.85;5.12;;;;;;;34.14;26.88;100104.06;144994;620;5002;-85
2021/08/06 07:33:35;;;;;;;15.45;5.32;;;;;;;34.12;27.06;100101.50;144994;571;5002;-84
2021/08/06 07:36:02;;;;;;;15.52;4.60;;;;;;;34.11;26.82;100104.31;144994;594;5002;-83
2021/08/06 07:38:28;;;;;;;12.80;4.55;;;;;;;34.13;27.31;100113.97;144994;617;5002;-82
2021/08/06 07:40:55;;;;;;;12.00;4.45;;;;;;;34.06;27.22;100115.44;144994;590;5002;-83
2021/08/06 07:43:22;;;;;;;19.42;4.72;;;;;;;34.01;27.27;100123.00;144994;586;5006;-83
2021/08/06 07:45:50;;;;;;;13.40;4.62;;;;;;;33.99;27.10;100124.97;144994;565;5002;-82
2021/08/06 07:48:16;;;;;;;14.20;4.62;;;;;;;34.10;27.29;100126.81;144994;592;5002;-81
2021/08/06 07:50:43;;;;;;;11.15;5.07;;;;;;;34.14;26.96;100126.47;144994;563;5002;-82
2021/08/06 07:53:10;;;;;;;25.30;5.78;;;;;;;34.26;27.54;100121.97;144994;567;5002;-85
2021/08/06 07:55:37;;;;;;;9.68;4.70;;;;;;;34.22;26.97;100125.88;144994;591;5002;-84
2021/08/06 07:58:04;;;;;;;11.45;4.60;;;;;;;34.13;27.07;100121.19;144994;595;5002;-84
2021/08/06 08:00:34;;;;;;;13.70;4.60;;;;;;;34.13;26.99;100119.34;144994;595;5002;-83
2021/08/06 08:03:01;;;;;;;14.25;5.00;;;;;;;34.21;26.86;100113.38;144994;577;5002;-82
2021/08/06 08:05:28;;;;;;;12.90;4.50;;;;;;;34.30;26.78;100109.97;144994;619;5002;-83
2021/08/06 08:07:55;;;;;;;12.07;4.12;;;;;;;34.52;27.02;100121.72;144994;585;5002;-83
2021/08/06 08:10:22;;;;;;;13.18;4.62;;;;;;;34.52;26.44;100117.19;144994;565;5002;-82
2021/08/06 08:12:48;;;;;;;11.27;4.75;;;;;;;34.61;26.15;100125.53;144994;593;5002;-82
2021/08/06 08:15:15;;;;;;;14.73;4.15;;;;;;;34.77;25.91;100119.78;144994;592;5002;-83
2021/08/06 08:17:42;;;;;;;7.62;4.25;;;;;;;34.79;26.14;100123.19;144994;608;5002;-84
2021/08/06 08:20:10;;;;;;;8.75;4.05;;;;;;;34.90;26.28;100108.84;144994;573;5002;-82
2021/08/06 08:22:37;;;;;;;11.20;3.90;;;;;;;34.92;26.00;100123.91;144994;619;5002;-81
2021/08/06 08:25:06;;;;;;;11.63;4.50;;;;;;;34.92;26.65;100118.53;144994;566;5002;-84
2021/08/06 08:27:33;;;;;;;12.48;4.30;;;;;;;34.96;25.59;100108.34;144994;631;5002;-83
2021/08/06 08:29:59;;;;;;;15.93;4.30;;;;;;;35.18;25.73;100115.50;144994;565;5003;-84
2021/08/06 08:32:29;;;;;;;11.35;4.53;;;;;;;35.38;25.92;100128.22;144994;622;5002;-83
2021/08/06 08:34:55;;;;;;;12.45;4.75;;;;;;;35.51;25.54;100121.75;144994;626;5002;-82
2021/08/06 08:37:22;;;;;;;10.07;4.03;;;;;;;35.55;25.48;100123.22;144994;566;5002;-82
2021/08/06 08:39:48;;;;;;;11.60;3.97;;;;;;;35.47;26.01;100123.84;144994;614;5002;-82
2021/08/06 08:42:17;;;;;;;12.02;4.60;;;;;;;35.41;25.79;100130.66;144994;572;5002;-82
2021/08/06 08:44:44;;;;;;;12.60;4.45;;;;;;;35.50;26.11;100106.56;144994;640;5002;-82
2021/08/06 08:47:11;;;;;;;10.32;3.90;;;;;;;35.50;25.45;100111.97;144994;584;5002;-83
2021/08/06 08:49:41;;;;;;;11.00;4.00;;;;;;;35.52;26.21;100115.37;144994;571;5002;-84
2021/08/06 08:52:07;;;;;;;15.73;4.10;;;;;;;35.60;25.65;100111.06;144994;566;5002;-82
2021/08/06 08:54:36;;;;;;;11.75;4.12;;;;;;;35.65;25.70;100110.66;144994;564;5002;-82
2021/08/06 08:57:04;;;;;;;9.32;4.30;;;;;;;35.71;25.86;100112.81;144994;673;5002;-83
2021/08/06 08:59:31;;;;;;;14.23;4.43;;;;;;;35.83;25.11;100113.66;144994;610;5002;-83
2021/08/06 09:01:58;;;;;;;11.73;3.97;;;;;;;36.02;25.85;100110.22;144994;582;5002;-82
2021/08/06 09:04:29;;;;;;;13.13;4.25;;;;;;;36.12;25.41;100097.59;144994;571;5002;-83
2021/08/06 09:06:57;;;;;;;14.45;4.00;;;;;;;36.21;24.14;100097.78;144994;564;5002;-82
2021/08/06 09:09:26;;;;;;;10.07;3.55;;;;;;;36.29;25.07;100098.84;144994;693;5002;-84
2021/08/06 09:12:13;;;;;;;13.57;3.92;;;;;;;36.36;24.87;100093.75;144994;715;5002;-83
2021/08/06 09:14:39;;;;;;;10.18;3.60;;;;;;;36.36;24.48;100095.59;144994;696;5004;-82
2021/08/06 09:17:09;;;;;;;20.95;4.10;;;;;;;36.22;23.94;100092.22;144994;576;5004;-84
2021/08/06 09:19:40;;;;;;;13.95;4.07;;;;;;;36.22;24.77;100078.72;144994;580;5004;-84
2021/08/06 09:22:18;;;;;;;12.77;3.75;;;;;;;36.20;23.97;100088.81;144994;604;5004;-83
2021/08/06 09:25:06;;;;;;;8.98;3.60;;;;;;;36.25;24.52;100085.75;144994;586;5004;-83
2021/08/06 09:27:36;;;;;;;9.52;3.35;;;;;;;36.20;23.73;100086.12;144994;577;5002;-83
2021/08/06 09:30:07;;;;;;;9.80;3.60;;;;;;;36.35;24.04;100088.47;144994;583;5002;-83
2021/08/06 09:32:47;;;;;;;11.02;3.42;;;;;;;36.39;23.62;100076.41;144994;631;5002;-82
2021/08/06 09:35:22;;;;;;;13.90;3.90;;;;;;;36.49;23.52;100071.88;144994;565;5002;-83
2021/08/06 09:37:49;;;;;;;9.88;3.60;;;;;;;36.56;23.95;100080.28;144994;574;5002;-81
2021/08/06 09:40:18;;;;;;;10.57;3.30;;;;;;;36.45;23.67;100065.06;144994;589;5002;-81
2021/08/06 09:42:54;;;;;;;9.32;3.33;;;;;;;36.50;24.45;100069.03;144994;640;5002;-83
2021/08/06 09:45:24;;;;;;;11.52;4.22;;;;;;;36.46;24.24;100053.25;144994;570;5002;-81
2021/08/06 09:47:55;;;;;;;11.40;3.90;;;;;;;36.66;24.25;100056.84;144994;721;5002;-81
2021/08/06 09:50:25;;;;;;;9.70;4.10;;;;;;;36.84;24.15;100051.66;144994;569;5002;-82
2021/08/06 09:52:53;;;;;;;12.50;4.00;;;;;;;36.81;24.15;100050.09;144994;589;5002;-83
2021/08/06 09:55:26;;;;;;;11.52;3.95;;;;;;;36.70;23.04;100047.44;144994;611;5002;-81
2021/08/06 09:57:54;;;;;;;10.95;4.20;;;;;;;36.76;23.55;100043.38;144994;614;5002;-83
2021/08/06 10:00:24;;;;;;;10.85;4.53;;;;;;;36.80;23.05;100031.31;144994;586;5002;-82
2021/08/06 10:02:52;;;;;;;13.45;3.90;;;;;;;36.94;23.76;100033.59;144994;589;5002;-82
2021/08/06 10:05:21;;;;;;;11.05;4.40;;;;;;;36.99;23.51;100038.56;144994;581;5002;-81
2021/08/06 10:07:51;;;;;;;9.23;3.67;;;;;;;36.93;22.18;100028.31;144994;565;5002;-84
2021/08/06 10:10:26;;;;;;;7.68;3.70;;;;;;;36.75;21.68;100038.97;144994;630;5002;-79
2021/08/06 10:12:54;;;;;;;6.95;4.07;;;;;;;36.77;21.19;100027.03;144994;569;5002;-81
2021/08/06 10:15:23;;;;;;;7.37;3.12;;;;;;;36.70;22.64;100027.69;144994;581;5002;-82
2021/08/06 10:17:50;;;;;;;10.25;3.20;;;;;;;36.57;22.36;100025.25;144994;619;5002;-82
2021/08/06 10:20:22;;;;;;;9.18;3.22;;;;;;;36.58;21.67;100021.56;144994;575;5002;-86
2021/08/06 10:22:49;;;;;;;5.78;3.70;;;;;;;36.64;21.42;100021.00;144994;586;5002;-82
2021/08/06 10:25:19;;;;;;;10.55;3.58;;;;;;;36.79;21.08;100016.06;144994;583;5002;-84
2021/08/06 10:27:47;;;;;;;10.82;3.47;;;;;;;36.79;21.97;100014.22;144994;634;5002;-82
2021/08/06 10:30:45;;;;;;;6.07;3.00;;;;;;;36.73;22.17;100013.91;144994;564;5002;-80
2021/08/06 10:33:22;;;;;;;9.15;3.35;;;;;;;36.91;21.58;100006.81;144994;720;5004;-82
2021/08/06 10:36:05;;;;;;;10.35;3.65;;;;;;;36.95;22.39;100007.38;144994;588;5004;-83
2021/08/06 10:38:46;;;;;;;9.40;3.42;;;;;;;37.01;21.74;100002.25;144994;650;5004;-82
2021/08/06 10:41:15;;;;;;;12.23;3.20;;;;;;;36.95;20.14;99994.72;144993;584;4574;-82
2021/08/06 10:44:07;;;;;;;11.52;3.42;;;;;;;36.98;20.75;99994.44;144992;589;6002;-84
2021/08/06 10:47:00;;;;;;;8.60;3.42;;;;;;;36.98;20.25;100001.69;144992;565;6016;-83
2021/08/06 10:49:29;;;;;;;7.97;2.80;;;;;;;37.04;20.24;99995.72;144992;617;6002;-83
2021/08/06 10:52:19;;;;;;;9.15;3.17;;;;;;;37.05;19.44;99989.28;144992;618;6002;-83
2021/08/06 10:54:47;;;;;;;7.15;3.53;;;;;;;37.14;19.37;99985.72;144992;571;6004;-84
2021/08/06 10:57:20;;;;;;;6.62;2.70;;;;;;;37.16;19.94;99978.34;144992;634;6004;-82
2021/08/06 10:59:48;;;;;;;7.85;3.33;;;;;;;37.19;20.08;99967.22;144992;608;6004;-83
2021/08/06 11:02:50;;;;;;;7.70;3.40;;;;;;;37.29;20.85;99975.38;144992;613;6004;-83
2021/08/06 11:05:30;;;;;;;11.38;3.25;;;;;;;37.19;19.59;99966.34;144992;698;6002;-82
2021/08/06 11:08:00;;;;;;;10.85;3.58;;;;;;;37.15;19.81;99971.22;144992;601;6002;-82
2021/08/06 11:10:48;;;;;;;9.38;3.40;;;;;;;37.22;20.35;99966.09;144992;582;6002;-81
2021/08/06 11:13:52;;;;;;;7.20;3.17;;;;;;;37.23;20.52;99967.81;144992;734;6002;-82
2021/08/06 11:16:19;;;;;;;8.50;3.28;;;;;;;37.28;20.56;99948.44;144992;641;6004;-82
2021/08/06 11:18:48;;;;;;;9.85;3.15;;;;;;;37.29;20.03;99950.13;144992;640;6004;-83
2021/08/06 11:21:15;;;;;;;8.32;3.28;;;;;;;37.27;19.86;99944.03;144992;587;6004;-82
2021/08/06 11:23:42;;;;;;;5.80;3.20;;;;;;;37.31;19.90;99948.16;144992;597;6004;-81
2021/08/06 11:26:10;;;;;;;10.77;2.78;;;;;;;37.08;18.80;99942.19;144992;626;6004;-82
2021/08/06 11:28:37;;;;;;;8.75;3.85;;;;;;;37.01;20.25;99937.34;144992;582;6004;-83
2021/08/06 11:31:20;;;;;;;12.25;3.83;;;;;;;37.12;20.69;99936.34;144992;578;6004;-82
2021/08/06 11:34:05;;;;;;;5.97;3.15;;;;;;;37.19;21.04;99932.06;144992;565;6004;-83
2021/08/06 11:36:33;;;;;;;6.87;3.45;;;;;;;37.28;20.43;99926.81;144992;567;6004;-84
2021/08/06 11:39:10;;;;;;;11.07;3.53;;;;;;;37.29;20.55;99917.66;144992;642;6004;-83
2021/08/06 11:41:49;;;;;;;8.45;3.65;;;;;;;37.33;20.89;99924.50;144992;606;6004;-82